createdAt,value
2023-03-17T00:01:18.517Z,44.98
2023-03-17T00:05:18.504Z,45.31
2023-03-17T00:09:18.432Z,45.39
2023-03-17T00:13:18.447Z,45.35
2023-03-17T00:17:18.606Z,45.37
2023-03-17T00:21:18.954Z,45.12
2023-03-17T00:25:18.806Z,44.79
2023-03-17T00:29:19.004Z,44.74
2023-03-17T00:33:18.999Z,44.99
2023-03-17T00:37:19.111Z,44.51
2023-03-17T00:41:19.241Z,44.47
2023-03-17T00:45:19.431Z,44.75
2023-03-17T00:49:19.397Z,44.67
2023-03-17T00:53:19.343Z,44.78
2023-03-17T00:57:19.378Z,44.89
2023-03-17T01:01:19.342Z,45.20
2023-03-17T01:05:19.250Z,45.42
2023-03-17T01:09:19.281Z,45.75
2023-03-17T01:13:19.267Z,45.58
2023-03-17T01:17:19.112Z,46.39
2023-03-17T01:21:19.230Z,46.12
2023-03-17T01:25:19.063Z,46.22
2023-03-17T01:29:19.144Z,46.45
2023-03-17T01:33:19.024Z,46.30
2023-03-17T01:37:19.006Z,45.96
2023-03-17T01:41:18.970Z,45.62
2023-03-17T01:45:18.990Z,45.55
2023-03-17T01:49:18.888Z,45.50
2023-03-17T01:53:18.844Z,45.91
2023-03-17T01:57:18.783Z,45.44
2023-03-17T02:01:18.819Z,45.48
2023-03-17T02:05:18.766Z,45.47
2023-03-17T02:09:18.697Z,45.93
2023-03-17T02:13:18.647Z,46.41
2023-03-17T02:17:18.610Z,46.49
2023-03-17T02:21:18.666Z,46.31
2023-03-17T02:28:58.464Z,46.01
2023-03-17T02:32:58.458Z,46.80
2023-03-17T02:36:58.439Z,46.11
2023-03-17T02:40:58.353Z,45.56
2023-03-17T02:44:58.297Z,45.94
2023-03-17T02:48:58.281Z,46.27
2023-03-17T02:52:58.217Z,46.98
2023-03-17T02:56:58.211Z,46.91
2023-03-17T03:00:58.173Z,46.95
2023-03-17T03:04:58.127Z,47.06
2023-03-17T03:08:58.090Z,46.98
2023-03-17T03:12:58.072Z,47.34
2023-03-17T03:16:58.013Z,47.50
2023-03-17T03:20:58.102Z,47.61
2023-03-17T03:24:57.981Z,47.25
2023-03-17T03:28:57.921Z,47.32
2023-03-17T03:32:58.067Z,46.84
2023-03-17T03:36:57.907Z,46.91
2023-03-17T03:40:57.965Z,47.08
2023-03-17T03:44:58.098Z,47.15
2023-03-17T03:48:58.207Z,47.22
2023-03-17T03:52:58.314Z,47.68
2023-03-17T03:56:58.499Z,47.41
2023-03-17T04:00:58.672Z,47.96
2023-03-17T04:04:58.828Z,47.99
2023-03-17T04:08:58.916Z,48.05
2023-03-17T04:12:59.085Z,48.33
2023-03-17T04:16:59.034Z,48.31
2023-03-17T04:20:59.017Z,48.24
2023-03-17T04:24:58.984Z,47.97
2023-03-17T04:28:58.941Z,48.14
2023-03-17T04:32:58.984Z,48.24
2023-03-17T04:36:59.178Z,48.12
2023-03-17T04:40:58.894Z,47.91
2023-03-17T04:44:58.893Z,48.14
2023-03-17T04:48:58.728Z,48.15
2023-03-17T04:52:58.729Z,47.98
2023-03-17T04:56:58.682Z,47.81
2023-03-17T05:00:58.849Z,47.52
2023-03-17T05:04:58.998Z,47.36
2023-03-17T05:08:59.151Z,47.31
2023-03-17T05:12:59.317Z,47.35
2023-03-17T05:16:59.462Z,47.78
2023-03-17T05:20:59.571Z,47.57
2023-03-17T05:24:59.693Z,47.82
2023-03-17T05:28:59.930Z,47.80
2023-03-17T05:32:59.930Z,47.86
2023-03-17T05:36:59.830Z,47.54
2023-03-17T05:40:59.820Z,47.55
2023-03-17T05:44:59.791Z,48.08
2023-03-17T05:48:59.750Z,48.21
2023-03-17T05:52:59.684Z,48.22
2023-03-17T05:56:59.676Z,48.22
2023-03-17T06:00:59.647Z,47.85
2023-03-17T06:04:59.611Z,48.20
2023-03-17T06:08:59.673Z,47.57
2023-03-17T06:12:59.521Z,47.55
2023-03-17T06:16:59.607Z,47.55
2023-03-17T06:20:59.696Z,47.36
2023-03-17T06:24:59.704Z,46.75
2023-03-17T06:28:59.756Z,46.96
2023-03-17T06:32:59.782Z,47.16
2023-03-17T06:36:59.962Z,47.13
2023-03-17T06:40:59.893Z,47.03
2023-03-17T06:44:59.987Z,47.03
2023-03-17T06:49:00.067Z,46.58
2023-03-17T06:53:00.114Z,46.33
2023-03-17T06:57:00.094Z,46.31
2023-03-17T07:01:00.099Z,46.16
2023-03-17T07:05:00.380Z,45.87
2023-03-17T07:09:02.171Z,46.31
2023-03-17T07:13:00.265Z,46.50
2023-03-17T07:17:00.313Z,46.97
2023-03-17T07:21:00.701Z,46.60
2023-03-17T07:25:00.725Z,46.19
2023-03-17T07:29:00.882Z,45.52
2023-03-17T07:33:00.923Z,45.62
2023-03-17T07:37:01.096Z,46.26
2023-03-17T07:41:00.965Z,45.92
2023-03-17T07:45:00.976Z,45.53
2023-03-17T07:49:01.158Z,46.43
2023-03-17T07:53:01.102Z,45.84
2023-03-17T07:57:01.263Z,45.57
2023-03-17T08:01:01.228Z,45.78
2023-03-17T08:05:01.104Z,45.16
2023-03-17T08:09:01.235Z,45.18
2023-03-17T08:13:01.338Z,44.69
2023-03-17T08:17:01.312Z,44.17
2023-03-17T08:21:01.269Z,43.14
2023-03-17T08:25:01.257Z,43.11
2023-03-17T08:29:01.186Z,43.58
2023-03-17T08:33:01.234Z,43.39
2023-03-17T08:37:01.074Z,42.14
2023-03-17T08:41:01.099Z,42.01
2023-03-17T08:45:01.013Z,41.76
2023-03-17T08:49:01.023Z,41.14
2023-03-17T08:53:00.977Z,40.60
2023-03-17T08:57:00.914Z,40.11
2023-03-17T09:01:00.890Z,40.67
2023-03-17T09:05:00.864Z,39.46
2023-03-17T09:09:00.808Z,38.37
2023-03-17T09:13:00.827Z,38.11
2023-03-17T09:17:01.032Z,37.86
2023-03-17T09:21:01.183Z,38.37
2023-03-17T09:25:01.062Z,37.51
2023-03-17T09:29:03.739Z,37.92
2023-03-17T09:33:01.196Z,37.70
2023-03-17T09:37:01.082Z,37.00
2023-03-17T09:41:01.043Z,36.84
2023-03-17T09:45:01.015Z,36.89
2023-03-17T09:49:01.000Z,36.48
2023-03-17T09:53:03.726Z,35.99
2023-03-17T09:57:00.892Z,35.93
2023-03-17T10:01:00.832Z,36.47
2023-03-17T10:05:00.884Z,36.80
2023-03-17T10:09:00.969Z,35.17
2023-03-17T10:13:00.832Z,33.95
2023-03-17T10:17:00.723Z,34.79
2023-03-17T10:21:00.739Z,35.51
2023-03-17T10:25:03.151Z,34.47
2023-03-17T10:29:00.793Z,33.83
2023-03-17T10:33:00.630Z,33.54
2023-03-17T10:37:00.593Z,32.76
2023-03-17T10:41:00.570Z,32.68
2023-03-17T10:45:00.490Z,32.17
2023-03-17T10:49:00.486Z,31.67
2023-03-17T10:53:00.459Z,31.02
2023-03-17T10:57:00.374Z,30.12
2023-03-17T11:01:00.470Z,30.53
2023-03-17T11:05:00.316Z,30.20
2023-03-17T11:09:00.314Z,28.28
2023-03-17T11:13:00.244Z,29.21
2023-03-17T11:17:00.267Z,29.03
2023-03-17T11:21:00.179Z,28.78
2023-03-17T11:25:00.219Z,29.08
2023-03-17T11:29:00.227Z,28.11
2023-03-17T11:33:00.392Z,28.70
2023-03-17T11:37:00.392Z,28.65
2023-03-17T11:41:00.518Z,28.33
2023-03-17T11:45:00.742Z,27.77
2023-03-17T11:49:00.962Z,27.81
2023-03-17T11:53:01.038Z,26.44
2023-03-17T11:57:01.218Z,25.71
2023-03-17T12:01:01.264Z,26.57
2023-03-17T12:05:01.339Z,27.50
2023-03-17T12:09:01.377Z,26.90
2023-03-17T12:13:01.407Z,25.71
2023-03-17T12:17:01.625Z,25.71
2023-03-17T12:21:01.816Z,26.65
2023-03-17T12:25:01.952Z,26.36
2023-03-17T12:29:02.208Z,26.02
2023-03-17T12:33:02.120Z,27.35
2023-03-17T12:37:02.368Z,26.22
2023-03-17T12:41:02.413Z,26.73
2023-03-17T12:45:02.672Z,26.52
2023-03-17T12:49:02.808Z,27.11
2023-03-17T12:53:02.931Z,26.79
2023-03-17T12:57:02.957Z,25.31
2023-03-17T13:01:02.861Z,25.98
2023-03-17T13:05:02.834Z,25.85
2023-03-17T13:09:02.930Z,25.00
2023-03-17T13:13:02.803Z,24.00
2023-03-17T13:17:02.678Z,24.23
2023-03-17T13:21:02.683Z,23.31
2023-03-17T13:25:02.690Z,22.53
2023-03-17T13:29:02.628Z,22.84
2023-03-17T13:33:02.648Z,23.04
2023-03-17T13:37:02.614Z,22.71
2023-03-17T13:41:02.610Z,22.35
2023-03-17T13:45:02.691Z,21.89
2023-03-17T13:49:02.886Z,21.38
2023-03-17T13:53:03.106Z,21.29
2023-03-17T13:57:03.179Z,21.43
2023-03-17T14:01:14.425Z,21.61
2023-03-17T14:05:03.301Z,21.51
2023-03-17T14:09:03.269Z,21.48
2023-03-17T14:13:03.196Z,21.31
2023-03-17T14:17:03.367Z,21.36
2023-03-17T14:21:04.684Z,21.48
2023-03-17T14:25:03.443Z,21.36
2023-03-17T14:29:03.436Z,21.30
2023-03-17T14:33:03.394Z,21.36
2023-03-17T14:37:03.267Z,21.39
2023-03-17T14:41:03.248Z,21.35
2023-03-17T14:45:03.217Z,21.22
2023-03-17T14:49:03.176Z,21.58
2023-03-17T14:53:03.187Z,21.47
2023-03-17T14:57:03.247Z,21.34
2023-03-17T15:01:03.110Z,21.60
2023-03-17T15:05:02.973Z,21.62
2023-03-17T15:09:03.173Z,20.86
2023-03-17T15:13:03.122Z,21.44
2023-03-17T15:17:03.044Z,21.20
2023-03-17T15:21:02.904Z,21.59
2023-03-17T15:25:02.891Z,21.43
2023-03-17T15:29:02.852Z,21.52
2023-03-17T15:33:03.024Z,21.81
2023-03-17T15:37:03.082Z,21.83
2023-03-17T15:41:03.191Z,22.09
2023-03-17T15:45:03.244Z,22.22
2023-03-17T15:49:03.290Z,22.36
2023-03-17T15:53:03.412Z,21.98
2023-03-17T15:57:03.529Z,22.45
2023-03-17T16:01:03.648Z,22.86
2023-03-17T16:05:03.752Z,22.70
2023-03-17T16:09:04.006Z,22.48
2023-03-17T16:13:03.997Z,22.76
2023-03-17T16:17:04.230Z,22.91
2023-03-17T16:21:04.100Z,23.13
2023-03-17T16:25:04.304Z,22.97
2023-03-17T16:29:06.215Z,22.85
2023-03-17T16:33:04.618Z,23.11
2023-03-17T16:37:04.569Z,23.19
2023-03-17T16:41:04.315Z,23.46
2023-03-17T16:45:04.289Z,23.02
2023-03-17T16:49:04.319Z,23.10
2023-03-17T16:53:04.244Z,23.16
2023-03-17T16:57:06.052Z,23.33
2023-03-17T17:01:04.144Z,23.54
2023-03-17T17:05:04.164Z,23.75
2023-03-17T17:09:04.102Z,23.60
2023-03-17T17:13:05.914Z,23.78
2023-03-17T17:17:03.975Z,24.02
2023-03-17T17:21:03.978Z,24.19
2023-03-17T17:25:03.936Z,23.98
2023-03-17T17:29:03.916Z,24.11
2023-03-17T17:33:03.841Z,24.30
2023-03-17T17:37:03.822Z,24.29
2023-03-17T17:41:03.747Z,24.55
2023-03-17T17:45:03.756Z,24.57
2023-03-17T17:49:03.696Z,24.66
2023-03-17T17:53:03.671Z,24.67
2023-03-17T17:57:03.747Z,24.85
2023-03-17T18:01:03.673Z,24.95
2023-03-17T18:05:03.743Z,25.16
2023-03-17T18:09:03.860Z,25.04
2023-03-17T18:13:03.961Z,25.16
2023-03-17T18:17:04.142Z,25.42
2023-03-17T18:21:04.328Z,25.23
2023-03-17T18:25:04.465Z,25.31
2023-03-17T18:29:04.703Z,25.34
2023-03-17T18:33:04.763Z,25.50
2023-03-17T18:37:04.628Z,25.44
2023-03-17T18:41:04.615Z,25.54
2023-03-17T18:45:04.540Z,25.41
2023-03-17T18:49:04.454Z,25.68
2023-03-17T18:53:04.521Z,25.68
2023-03-17T18:57:04.405Z,25.88
2023-03-17T19:01:04.462Z,26.23
2023-03-17T19:05:04.353Z,26.08
2023-03-17T19:09:04.290Z,25.99
2023-03-17T19:13:04.241Z,26.37
2023-03-17T19:17:04.240Z,26.33
2023-03-17T19:21:04.200Z,26.25
2023-03-17T19:25:04.121Z,26.32
2023-03-17T19:29:04.104Z,26.83
2023-03-17T19:33:04.213Z,26.70
2023-03-17T19:37:04.045Z,26.86
2023-03-17T19:41:03.993Z,26.66
2023-03-17T19:45:03.979Z,26.55
2023-03-17T19:49:04.075Z,26.64
2023-03-17T19:53:04.228Z,27.04
2023-03-17T19:57:04.290Z,26.88
2023-03-17T20:01:04.358Z,27.05
2023-03-17T20:13:53.715Z,28.69
2023-03-17T20:17:43.503Z,29.83
2023-03-17T20:21:43.364Z,29.70
2023-03-17T20:25:43.372Z,30.01
2023-03-17T20:29:43.294Z,31.67
2023-03-17T20:33:43.299Z,32.10
2023-03-17T20:37:43.251Z,33.30
2023-03-17T20:41:43.274Z,34.08
2023-03-17T20:45:43.302Z,34.67
2023-03-17T20:49:43.483Z,34.21
2023-03-17T20:53:43.526Z,35.11
2023-03-17T20:57:43.469Z,35.37
2023-03-17T21:01:43.516Z,34.74
2023-03-17T21:05:43.371Z,35.82
2023-03-17T21:09:43.371Z,34.98
2023-03-17T21:13:43.350Z,35.77
2023-03-17T21:17:43.270Z,35.99
2023-03-17T21:21:43.290Z,36.27
2023-03-17T21:25:43.208Z,35.94
2023-03-17T21:29:43.136Z,36.15
2023-03-17T21:33:43.092Z,36.34
2023-03-17T21:37:43.228Z,37.02
2023-03-17T21:41:42.995Z,37.61
2023-03-17T21:45:43.037Z,37.79
2023-03-17T21:49:42.984Z,38.05
2023-03-17T21:53:42.881Z,38.00
2023-03-17T21:57:42.853Z,37.87
2023-03-17T22:01:43.130Z,38.11
2023-03-17T22:05:42.997Z,38.43
2023-03-17T22:09:42.978Z,38.56
2023-03-17T22:13:43.059Z,38.07
2023-03-17T22:17:43.050Z,37.88
2023-03-17T22:21:42.897Z,37.77
2023-03-17T22:25:42.997Z,38.20
2023-03-17T22:29:43.015Z,38.47
2023-03-17T22:33:42.809Z,38.52
2023-03-17T22:37:42.728Z,38.40
2023-03-17T22:41:42.712Z,38.49
2023-03-17T22:45:42.734Z,38.49
2023-03-17T22:49:42.645Z,38.51
2023-03-17T22:53:42.617Z,38.97
2023-03-17T22:57:42.564Z,39.19
2023-03-17T23:01:42.533Z,39.76
2023-03-17T23:05:42.480Z,39.82
2023-03-17T23:09:42.550Z,39.99
2023-03-17T23:13:42.780Z,40.00
2023-03-17T23:17:42.695Z,39.72
2023-03-17T23:21:42.688Z,39.39
2023-03-17T23:25:42.639Z,39.62
2023-03-17T23:29:42.607Z,39.84
2023-03-17T23:33:42.570Z,40.12
2023-03-17T23:37:42.574Z,40.22
2023-03-17T23:41:42.443Z,40.51
2023-03-17T23:45:42.542Z,41.06
2023-03-17T23:49:42.477Z,41.06
2023-03-17T23:53:42.398Z,40.81
2023-03-17T23:57:42.337Z,40.51
